sensor_id;sensor_type;location;lat;lon;timestamp;P1;durP1;ratioP1;P2;durP2;ratioP2
30080;SDS011;16902;50.816;12.828;2022-10-31T00:05:01;18.33;;;13.38;;
30080;SDS011;16902;50.816;12.828;2022-10-31T00:10:03;17.42;;;12.63;;
30080;SDS011;16902;50.816;12.828;2022-10-31T00:15:05;16.70;;;12.75;;
30080;SDS011;16902;50.816;12.828;2022-10-31T00:20:07;18.35;;;12.88;;
30080;SDS011;16902;50.816;12.828;2022-10-31T00:25:09;15.10;;;11.75;;
30080;SDS011;16902;50.816;12.828;2022-10-31T00:30:11;16.15;;;11.82;;
30080;SDS011;16902;50.816;12.828;2022-10-31T00:35:13;16.35;;;11.60;;
30080;SDS011;16902;50.816;12.828;2022-10-31T00:40:15;17.38;;;11.45;;
30080;SDS011;16902;50.816;12.828;2022-10-31T00:45:17;17.00;;;11.38;;
30080;SDS011;16902;50.816;12.828;2022-10-31T00:50:19;14.57;;;10.93;;
30080;SDS011;16902;50.816;12.828;2022-10-31T00:55:20;15.23;;;10.35;;
30080;SDS011;16902;50.816;12.828;2022-10-31T01:00:22;13.95;;;9.57;;
30080;SDS011;16902;50.816;12.828;2022-10-31T01:05:24;11.90;;;9.77;;
30080;SDS011;16902;50.816;12.828;2022-10-31T01:10:26;10.57;;;9.13;;
30080;SDS011;16902;50.816;12.828;2022-10-31T01:15:27;20.67;;;10.07;;
30080;SDS011;16902;50.816;12.828;2022-10-31T01:20:29;14.07;;;9.27;;
30080;SDS011;16902;50.816;12.828;2022-10-31T01:25:31;13.45;;;8.30;;
30080;SDS011;16902;50.816;12.828;2022-10-31T01:30:32;13.27;;;8.30;;
30080;SDS011;16902;50.816;12.828;2022-10-31T01:35:34;11.52;;;8.05;;
30080;SDS011;16902;50.816;12.828;2022-10-31T01:40:35;12.85;;;8.65;;
30080;SDS011;16902;50.816;12.828;2022-10-31T01:45:37;9.25;;;7.65;;
30080;SDS011;16902;50.816;12.828;2022-10-31T01:50:38;11.35;;;7.22;;
30080;SDS011;16902;50.816;12.828;2022-10-31T01:55:41;11.55;;;7.32;;
30080;SDS011;16902;50.816;12.828;2022-10-31T02:00:50;11.15;;;7.65;;
30080;SDS011;16902;50.816;12.828;2022-10-31T02:05:57;11.00;;;7.55;;
30080;SDS011;16902;50.816;12.828;2022-10-31T02:11:00;11.57;;;7.28;;
30080;SDS011;16902;50.816;12.828;2022-10-31T02:16:02;8.90;;;7.03;;
30080;SDS011;16902;50.816;12.828;2022-10-31T02:26:43;12.63;;;7.40;;
30080;SDS011;16902;50.816;12.828;2022-10-31T02:37:36;9.45;;;7.03;;
30080;SDS011;16902;50.816;12.828;2022-10-31T02:48:06;9.77;;;7.30;;
30080;SDS011;16902;50.816;12.828;2022-10-31T02:53:14;10.55;;;6.75;;
30080;SDS011;16902;50.816;12.828;2022-10-31T02:58:19;10.70;;;6.97;;
30080;SDS011;16902;50.816;12.828;2022-10-31T03:09:04;9.98;;;7.28;;
30080;SDS011;16902;50.816;12.828;2022-10-31T03:14:16;10.70;;;6.47;;
30080;SDS011;16902;50.816;12.828;2022-10-31T03:19:38;10.27;;;6.97;;
30080;SDS011;16902;50.816;12.828;2022-10-31T03:24:41;9.43;;;7.03;;
30080;SDS011;16902;50.816;12.828;2022-10-31T03:29:44;12.00;;;7.53;;
30080;SDS011;16902;50.816;12.828;2022-10-31T03:34:48;8.93;;;6.85;;
30080;SDS011;16902;50.816;12.828;2022-10-31T03:39:52;11.68;;;6.90;;
30080;SDS011;16902;50.816;12.828;2022-10-31T03:44:59;10.10;;;7.07;;
30080;SDS011;16902;50.816;12.828;2022-10-31T03:50:06;7.45;;;6.15;;
30080;SDS011;16902;50.816;12.828;2022-10-31T03:55:13;9.02;;;6.43;;
30080;SDS011;16902;50.816;12.828;2022-10-31T04:00:16;10.15;;;6.68;;
30080;SDS011;16902;50.816;12.828;2022-10-31T04:05:19;10.48;;;7.00;;
30080;SDS011;16902;50.816;12.828;2022-10-31T04:10:23;9.35;;;6.95;;
30080;SDS011;16902;50.816;12.828;2022-10-31T04:15:34;10.07;;;7.50;;
30080;SDS011;16902;50.816;12.828;2022-10-31T04:20:38;12.35;;;6.97;;
30080;SDS011;16902;50.816;12.828;2022-10-31T04:25:42;8.85;;;6.53;;
30080;SDS011;16902;50.816;12.828;2022-10-31T04:30:44;10.45;;;6.55;;
30080;SDS011;16902;50.816;12.828;2022-10-31T04:35:46;13.20;;;7.00;;
30080;SDS011;16902;50.816;12.828;2022-10-31T04:40:48;10.13;;;6.80;;
30080;SDS011;16902;50.816;12.828;2022-10-31T04:46:12;8.82;;;6.20;;
30080;SDS011;16902;50.816;12.828;2022-10-31T04:51:13;10.80;;;6.88;;
30080;SDS011;16902;50.816;12.828;2022-10-31T04:56:16;11.48;;;6.43;;
30080;SDS011;16902;50.816;12.828;2022-10-31T05:01:21;12.10;;;6.82;;
30080;SDS011;16902;50.816;12.828;2022-10-31T05:06:23;13.02;;;7.28;;
30080;SDS011;16902;50.816;12.828;2022-10-31T05:11:24;9.18;;;7.38;;
30080;SDS011;16902;50.816;12.828;2022-10-31T05:16:29;12.68;;;6.32;;
30080;SDS011;16902;50.816;12.828;2022-10-31T05:22:08;9.90;;;6.82;;
30080;SDS011;16902;50.816;12.828;2022-10-31T05:27:11;10.35;;;7.32;;
30080;SDS011;16902;50.816;12.828;2022-10-31T05:32:12;11.38;;;9.63;;
30080;SDS011;16902;50.816;12.828;2022-10-31T05:37:49;15.13;;;9.45;;
30080;SDS011;16902;50.816;12.828;2022-10-31T05:42:52;12.10;;;10.15;;
30080;SDS011;16902;50.816;12.828;2022-10-31T05:47:56;11.80;;;9.55;;
30080;SDS011;16902;50.816;12.828;2022-10-31T05:53:19;12.80;;;10.48;;
30080;SDS011;16902;50.816;12.828;2022-10-31T05:58:21;14.68;;;9.77;;
30080;SDS011;16902;50.816;12.828;2022-10-31T06:03:30;14.75;;;9.43;;
30080;SDS011;16902;50.816;12.828;2022-10-31T06:08:34;15.27;;;9.43;;
30080;SDS011;16902;50.816;12.828;2022-10-31T06:13:40;11.13;;;9.13;;
30080;SDS011;16902;50.816;12.828;2022-10-31T06:18:50;12.27;;;8.50;;
30080;SDS011;16902;50.816;12.828;2022-10-31T06:23:51;8.55;;;7.47;;
30080;SDS011;16902;50.816;12.828;2022-10-31T06:29:12;9.77;;;7.68;;
30080;SDS011;16902;50.816;12.828;2022-10-31T06:34:32;10.63;;;7.88;;
30080;SDS011;16902;50.816;12.828;2022-10-31T06:39:34;13.80;;;8.40;;
30080;SDS011;16902;50.816;12.828;2022-10-31T06:44:36;11.43;;;9.07;;
30080;SDS011;16902;50.816;12.828;2022-10-31T06:49:56;13.25;;;9.15;;
30080;SDS011;16902;50.816;12.828;2022-10-31T06:54:59;15.70;;;8.30;;
30080;SDS011;16902;50.816;12.828;2022-10-31T07:00:02;10.30;;;8.18;;
30080;SDS011;16902;50.816;12.828;2022-10-31T07:05:16;10.32;;;7.45;;
30080;SDS011;16902;50.816;12.828;2022-10-31T07:10:17;12.05;;;8.30;;
30080;SDS011;16902;50.816;12.828;2022-10-31T07:15:27;11.98;;;9.18;;
30080;SDS011;16902;50.816;12.828;2022-10-31T07:20:32;14.48;;;9.90;;
30080;SDS011;16902;50.816;12.828;2022-10-31T07:25:34;13.73;;;11.02;;
30080;SDS011;16902;50.816;12.828;2022-10-31T07:30:38;13.32;;;9.80;;
30080;SDS011;16902;50.816;12.828;2022-10-31T07:35:43;11.68;;;9.23;;
30080;SDS011;16902;50.816;12.828;2022-10-31T07:40:49;13.27;;;9.13;;
30080;SDS011;16902;50.816;12.828;2022-10-31T07:45:53;13.38;;;9.15;;
30080;SDS011;16902;50.816;12.828;2022-10-31T07:51:10;11.63;;;9.57;;
30080;SDS011;16902;50.816;12.828;2022-10-31T07:56:32;10.85;;;8.93;;
30080;SDS011;16902;50.816;12.828;2022-10-31T08:01:34;10.45;;;9.35;;
30080;SDS011;16902;50.816;12.828;2022-10-31T08:06:58;12.65;;;8.75;;
30080;SDS011;16902;50.816;12.828;2022-10-31T08:12:05;9.35;;;8.00;;
30080;SDS011;16902;50.816;12.828;2022-10-31T08:17:09;10.82;;;8.63;;
30080;SDS011;16902;50.816;12.828;2022-10-31T08:22:24;10.63;;;9.52;;
30080;SDS011;16902;50.816;12.828;2022-10-31T08:27:26;12.15;;;8.52;;
30080;SDS011;16902;50.816;12.828;2022-10-31T08:32:31;9.32;;;7.95;;
30080;SDS011;16902;50.816;12.828;2022-10-31T08:37:42;9.13;;;8.07;;
30080;SDS011;16902;50.816;12.828;2022-10-31T08:42:44;9.90;;;6.75;;
30080;SDS011;16902;50.816;12.828;2022-10-31T08:47:46;7.80;;;6.60;;
30080;SDS011;16902;50.816;12.828;2022-10-31T08:52:47;7.47;;;6.70;;
30080;SDS011;16902;50.816;12.828;2022-10-31T08:58:09;13.15;;;7.45;;
30080;SDS011;16902;50.816;12.828;2022-10-31T09:03:22;10.00;;;7.78;;
30080;SDS011;16902;50.816;12.828;2022-10-31T09:08:28;11.75;;;9.15;;
30080;SDS011;16902;50.816;12.828;2022-10-31T09:13:31;11.43;;;8.95;;
30080;SDS011;16902;50.816;12.828;2022-10-31T09:19:02;11.82;;;8.68;;
30080;SDS011;16902;50.816;12.828;2022-10-31T09:24:10;11.23;;;9.02;;
30080;SDS011;16902;50.816;12.828;2022-10-31T09:29:12;10.40;;;8.70;;
30080;SDS011;16902;50.816;12.828;2022-10-31T09:34:14;12.00;;;9.88;;
30080;SDS011;16902;50.816;12.828;2022-10-31T09:39:20;12.80;;;10.23;;
30080;SDS011;16902;50.816;12.828;2022-10-31T09:50:12;11.68;;;10.27;;
30080;SDS011;16902;50.816;12.828;2022-10-31T09:55:22;14.48;;;11.40;;
30080;SDS011;16902;50.816;12.828;2022-10-31T10:00:46;10.82;;;9.77;;
30080;SDS011;16902;50.816;12.828;2022-10-31T10:05:51;11.93;;;10.73;;
30080;SDS011;16902;50.816;12.828;2022-10-31T10:21:51;12.45;;;11.02;;
30080;SDS011;16902;50.816;12.828;2022-10-31T10:27:19;13.10;;;12.05;;
30080;SDS011;16902;50.816;12.828;2022-10-31T10:32:59;16.45;;;13.18;;
30080;SDS011;16902;50.816;12.828;2022-10-31T10:43:36;15.48;;;14.07;;
30080;SDS011;16902;50.816;12.828;2022-10-31T10:48:48;15.70;;;14.60;;
30080;SDS011;16902;50.816;12.828;2022-10-31T10:59:28;15.05;;;13.70;;
30080;SDS011;16902;50.816;12.828;2022-10-31T11:04:35;15.98;;;14.75;;
30080;SDS011;16902;50.816;12.828;2022-10-31T11:09:39;16.42;;;15.25;;
30080;SDS011;16902;50.816;12.828;2022-10-31T11:30:20;16.75;;;15.35;;
30080;SDS011;16902;50.816;12.828;2022-10-31T11:35:22;16.13;;;14.85;;
30080;SDS011;16902;50.816;12.828;2022-10-31T11:40:26;16.08;;;14.77;;
30080;SDS011;16902;50.816;12.828;2022-10-31T11:45:32;15.93;;;14.63;;
30080;SDS011;16902;50.816;12.828;2022-10-31T11:50:39;16.00;;;14.85;;
30080;SDS011;16902;50.816;12.828;2022-10-31T11:55:42;16.65;;;15.07;;
30080;SDS011;16902;50.816;12.828;2022-10-31T12:00:48;17.05;;;15.63;;
30080;SDS011;16902;50.816;12.828;2022-10-31T12:05:52;16.00;;;14.90;;
30080;SDS011;16902;50.816;12.828;2022-10-31T12:16:39;16.60;;;15.18;;
30080;SDS011;16902;50.816;12.828;2022-10-31T12:26:54;16.42;;;15.02;;
30080;SDS011;16902;50.816;12.828;2022-10-31T12:38:05;16.90;;;15.60;;
30080;SDS011;16902;50.816;12.828;2022-10-31T12:59:49;16.33;;;15.13;;
30080;SDS011;16902;50.816;12.828;2022-10-31T13:05:02;16.30;;;15.20;;
30080;SDS011;16902;50.816;12.828;2022-10-31T13:10:08;16.98;;;15.82;;
30080;SDS011;16902;50.816;12.828;2022-10-31T13:15:31;16.40;;;15.20;;
30080;SDS011;16902;50.816;12.828;2022-10-31T13:20:40;17.08;;;15.82;;
30080;SDS011;16902;50.816;12.828;2022-10-31T13:25:45;17.50;;;15.95;;
30080;SDS011;16902;50.816;12.828;2022-10-31T13:30:50;17.55;;;16.17;;
30080;SDS011;16902;50.816;12.828;2022-10-31T13:41:20;17.17;;;16.08;;
30080;SDS011;16902;50.816;12.828;2022-10-31T13:51:40;16.27;;;14.82;;
30080;SDS011;16902;50.816;12.828;2022-10-31T13:56:42;16.00;;;14.43;;
30080;SDS011;16902;50.816;12.828;2022-10-31T14:01:53;15.35;;;14.05;;
30080;SDS011;16902;50.816;12.828;2022-10-31T14:06:58;14.13;;;12.85;;
30080;SDS011;16902;50.816;12.828;2022-10-31T14:12:08;13.27;;;12.27;;
30080;SDS011;16902;50.816;12.828;2022-10-31T14:17:17;13.82;;;12.60;;
30080;SDS011;16902;50.816;12.828;2022-10-31T14:22:21;13.38;;;12.25;;
30080;SDS011;16902;50.816;12.828;2022-10-31T14:32:26;13.65;;;12.30;;
30080;SDS011;16902;50.816;12.828;2022-10-31T14:48:43;13.65;;;11.48;;
30080;SDS011;16902;50.816;12.828;2022-10-31T14:54:00;12.98;;;10.75;;
30080;SDS011;16902;50.816;12.828;2022-10-31T14:59:12;13.98;;;10.88;;
30080;SDS011;16902;50.816;12.828;2022-10-31T15:04:18;11.48;;;10.35;;
30080;SDS011;16902;50.816;12.828;2022-10-31T15:09:26;11.93;;;10.63;;
30080;SDS011;16902;50.816;12.828;2022-10-31T15:14:35;10.45;;;9.52;;
30080;SDS011;16902;50.816;12.828;2022-10-31T15:19:37;12.13;;;9.35;;
30080;SDS011;16902;50.816;12.828;2022-10-31T15:24:39;12.45;;;10.60;;
30080;SDS011;16902;50.816;12.828;2022-10-31T15:29:55;11.10;;;9.73;;
30080;SDS011;16902;50.816;12.828;2022-10-31T15:34:57;12.05;;;10.52;;
30080;SDS011;16902;50.816;12.828;2022-10-31T15:40:05;12.68;;;11.43;;
30080;SDS011;16902;50.816;12.828;2022-10-31T15:50:19;14.60;;;11.45;;
30080;SDS011;16902;50.816;12.828;2022-10-31T15:55:29;12.02;;;10.75;;
30080;SDS011;16902;50.816;12.828;2022-10-31T16:00:56;12.98;;;11.70;;
30080;SDS011;16902;50.816;12.828;2022-10-31T16:06:18;14.38;;;11.52;;
30080;SDS011;16902;50.816;12.828;2022-10-31T16:16:26;14.65;;;12.27;;
30080;SDS011;16902;50.816;12.828;2022-10-31T16:21:37;19.20;;;12.20;;
30080;SDS011;16902;50.816;12.828;2022-10-31T16:26:40;14.90;;;13.32;;
30080;SDS011;16902;50.816;12.828;2022-10-31T16:31:41;13.15;;;11.70;;
30080;SDS011;16902;50.816;12.828;2022-10-31T16:36:43;17.40;;;14.65;;
30080;SDS011;16902;50.816;12.828;2022-10-31T16:41:45;16.08;;;13.68;;
30080;SDS011;16902;50.816;12.828;2022-10-31T16:47:06;17.50;;;13.88;;
30080;SDS011;16902;50.816;12.828;2022-10-31T16:52:10;19.88;;;15.48;;
30080;SDS011;16902;50.816;12.828;2022-10-31T16:57:13;18.58;;;16.65;;
30080;SDS011;16902;50.816;12.828;2022-10-31T17:02:18;22.20;;;17.52;;
30080;SDS011;16902;50.816;12.828;2022-10-31T17:07:20;20.63;;;16.83;;
30080;SDS011;16902;50.816;12.828;2022-10-31T17:12:22;20.10;;;16.40;;
30080;SDS011;16902;50.816;12.828;2022-10-31T17:17:26;19.63;;;16.08;;
30080;SDS011;16902;50.816;12.828;2022-10-31T17:22:28;23.00;;;17.38;;
30080;SDS011;16902;50.816;12.828;2022-10-31T17:27:29;20.45;;;16.77;;
30080;SDS011;16902;50.816;12.828;2022-10-31T17:32:31;19.85;;;16.25;;
30080;SDS011;16902;50.816;12.828;2022-10-31T17:37:33;26.40;;;18.58;;
30080;SDS011;16902;50.816;12.828;2022-10-31T17:42:34;21.75;;;18.15;;
30080;SDS011;16902;50.816;12.828;2022-10-31T17:47:36;24.52;;;20.20;;
30080;SDS011;16902;50.816;12.828;2022-10-31T17:52:38;23.73;;;19.38;;
30080;SDS011;16902;50.816;12.828;2022-10-31T17:57:40;28.17;;;19.58;;
30080;SDS011;16902;50.816;12.828;2022-10-31T18:02:42;27.33;;;20.60;;
30080;SDS011;16902;50.816;12.828;2022-10-31T18:07:44;29.98;;;21.67;;
30080;SDS011;16902;50.816;12.828;2022-10-31T18:12:49;30.88;;;24.85;;
30080;SDS011;16902;50.816;12.828;2022-10-31T18:17:51;32.70;;;25.88;;
30080;SDS011;16902;50.816;12.828;2022-10-31T18:22:53;37.42;;;26.88;;
30080;SDS011;16902;50.816;12.828;2022-10-31T18:27:55;33.05;;;24.23;;
30080;SDS011;16902;50.816;12.828;2022-10-31T18:32:57;45.30;;;37.58;;
30080;SDS011;16902;50.816;12.828;2022-10-31T18:37:58;43.72;;;31.17;;
30080;SDS011;16902;50.816;12.828;2022-10-31T18:43:03;34.15;;;26.13;;
30080;SDS011;16902;50.816;12.828;2022-10-31T18:48:06;42.92;;;30.55;;
30080;SDS011;16902;50.816;12.828;2022-10-31T18:53:07;38.10;;;29.30;;
30080;SDS011;16902;50.816;12.828;2022-10-31T18:58:09;37.63;;;28.58;;
30080;SDS011;16902;50.816;12.828;2022-10-31T19:03:11;39.53;;;29.85;;
30080;SDS011;16902;50.816;12.828;2022-10-31T19:08:14;41.75;;;29.30;;
30080;SDS011;16902;50.816;12.828;2022-10-31T19:13:15;41.17;;;30.35;;
30080;SDS011;16902;50.816;12.828;2022-10-31T19:18:17;37.95;;;28.98;;
30080;SDS011;16902;50.816;12.828;2022-10-31T19:23:19;39.53;;;30.48;;
30080;SDS011;16902;50.816;12.828;2022-10-31T19:28:21;39.60;;;29.42;;
30080;SDS011;16902;50.816;12.828;2022-10-31T19:33:22;39.45;;;29.50;;
30080;SDS011;16902;50.816;12.828;2022-10-31T19:38:31;39.20;;;28.70;;
30080;SDS011;16902;50.816;12.828;2022-10-31T19:43:33;38.42;;;30.73;;
30080;SDS011;16902;50.816;12.828;2022-10-31T19:48:36;44.38;;;30.20;;
30080;SDS011;16902;50.816;12.828;2022-10-31T19:53:38;38.17;;;30.52;;
30080;SDS011;16902;50.816;12.828;2022-10-31T19:58:40;38.45;;;28.35;;
30080;SDS011;16902;50.816;12.828;2022-10-31T20:03:43;38.38;;;28.50;;
30080;SDS011;16902;50.816;12.828;2022-10-31T20:08:45;40.47;;;30.17;;
30080;SDS011;16902;50.816;12.828;2022-10-31T20:13:47;38.40;;;28.98;;
30080;SDS011;16902;50.816;12.828;2022-10-31T20:18:49;40.35;;;31.73;;
30080;SDS011;16902;50.816;12.828;2022-10-31T20:24:09;35.63;;;28.42;;
30080;SDS011;16902;50.816;12.828;2022-10-31T20:29:12;40.83;;;29.95;;
30080;SDS011;16902;50.816;12.828;2022-10-31T20:34:16;38.47;;;30.15;;
30080;SDS011;16902;50.816;12.828;2022-10-31T20:39:17;35.63;;;27.13;;
30080;SDS011;16902;50.816;12.828;2022-10-31T20:44:19;31.38;;;25.48;;
30080;SDS011;16902;50.816;12.828;2022-10-31T20:49:21;39.35;;;31.95;;
30080;SDS011;16902;50.816;12.828;2022-10-31T20:54:22;40.33;;;29.52;;
30080;SDS011;16902;50.816;12.828;2022-10-31T20:59:24;42.28;;;29.75;;
30080;SDS011;16902;50.816;12.828;2022-10-31T21:04:25;45.42;;;31.63;;
30080;SDS011;16902;50.816;12.828;2022-10-31T21:09:27;36.97;;;26.60;;
30080;SDS011;16902;50.816;12.828;2022-10-31T21:14:28;41.17;;;28.92;;
30080;SDS011;16902;50.816;12.828;2022-10-31T21:19:30;34.00;;;25.38;;
30080;SDS011;16902;50.816;12.828;2022-10-31T21:24:32;35.88;;;25.38;;
30080;SDS011;16902;50.816;12.828;2022-10-31T21:29:34;28.88;;;22.52;;
30080;SDS011;16902;50.816;12.828;2022-10-31T21:34:35;28.77;;;18.90;;
30080;SDS011;16902;50.816;12.828;2022-10-31T21:39:37;25.40;;;18.52;;
30080;SDS011;16902;50.816;12.828;2022-10-31T21:44:38;22.65;;;17.85;;
30080;SDS011;16902;50.816;12.828;2022-10-31T21:49:40;26.15;;;18.30;;
30080;SDS011;16902;50.816;12.828;2022-10-31T21:54:42;22.75;;;17.52;;
30080;SDS011;16902;50.816;12.828;2022-10-31T21:59:43;21.83;;;16.90;;
30080;SDS011;16902;50.816;12.828;2022-10-31T22:04:48;21.02;;;17.25;;
30080;SDS011;16902;50.816;12.828;2022-10-31T22:09:51;24.15;;;17.45;;
30080;SDS011;16902;50.816;12.828;2022-10-31T22:14:53;21.75;;;16.80;;
30080;SDS011;16902;50.816;12.828;2022-10-31T22:19:54;23.10;;;17.73;;
30080;SDS011;16902;50.816;12.828;2022-10-31T22:24:56;26.23;;;18.10;;
30080;SDS011;16902;50.816;12.828;2022-10-31T22:29:57;21.77;;;17.17;;
30080;SDS011;16902;50.816;12.828;2022-10-31T22:34:59;23.83;;;18.23;;
30080;SDS011;16902;50.816;12.828;2022-10-31T22:40:01;26.00;;;18.30;;
30080;SDS011;16902;50.816;12.828;2022-10-31T22:45:02;23.73;;;17.30;;
30080;SDS011;16902;50.816;12.828;2022-10-31T22:50:04;21.20;;;15.75;;
30080;SDS011;16902;50.816;12.828;2022-10-31T22:55:06;21.73;;;15.98;;
30080;SDS011;16902;50.816;12.828;2022-10-31T23:00:08;19.85;;;15.32;;
30080;SDS011;16902;50.816;12.828;2022-10-31T23:05:10;24.48;;;16.77;;
30080;SDS011;16902;50.816;12.828;2022-10-31T23:10:12;21.02;;;16.63;;
30080;SDS011;16902;50.816;12.828;2022-10-31T23:15:13;24.48;;;17.15;;
30080;SDS011;16902;50.816;12.828;2022-10-31T23:20:15;23.27;;;17.65;;
30080;SDS011;16902;50.816;12.828;2022-10-31T23:25:17;22.17;;;18.90;;
30080;SDS011;16902;50.816;12.828;2022-10-31T23:30:37;21.73;;;18.67;;
30080;SDS011;16902;50.816;12.828;2022-10-31T23:35:39;23.52;;;19.35;;
30080;SDS011;16902;50.816;12.828;2022-10-31T23:40:41;23.85;;;19.38;;
30080;SDS011;16902;50.816;12.828;2022-10-31T23:45:43;26.67;;;19.13;;
30080;SDS011;16902;50.816;12.828;2022-10-31T23:50:45;21.52;;;18.90;;
30080;SDS011;16902;50.816;12.828;2022-10-31T23:55:48;26.20;;;20.83;;
